sensor_id;sensor_type;location;lat;lon;timestamp;P1;durP1;ratioP1;P2;durP2;ratioP2
3865;SDS011;1948;53.250;10.412;2023-02-08T00:01:28;33.37;;;17.30;;
3865;SDS011;1948;53.250;10.412;2023-02-08T00:03:58;38.43;;;18.20;;
3865;SDS011;1948;53.250;10.412;2023-02-08T00:06:27;37.63;;;16.90;;
3865;SDS011;1948;53.250;10.412;2023-02-08T00:08:56;37.33;;;17.63;;
3865;SDS011;1948;53.250;10.412;2023-02-08T00:11:23;30.63;;;16.50;;
3865;SDS011;1948;53.250;10.412;2023-02-08T00:13:53;39.00;;;17.13;;
3865;SDS011;1948;53.250;10.412;2023-02-08T00:16:20;35.40;;;16.70;;
3865;SDS011;1948;53.250;10.412;2023-02-08T00:18:47;34.37;;;16.80;;
3865;SDS011;1948;53.250;10.412;2023-02-08T00:21:15;40.20;;;18.70;;
3865;SDS011;1948;53.250;10.412;2023-02-08T00:23:45;27.77;;;15.83;;
3865;SDS011;1948;53.250;10.412;2023-02-08T00:26:12;34.40;;;16.73;;
3865;SDS011;1948;53.250;10.412;2023-02-08T00:28:43;36.20;;;16.80;;
3865;SDS011;1948;53.250;10.412;2023-02-08T00:31:10;30.20;;;16.93;;
3865;SDS011;1948;53.250;10.412;2023-02-08T00:33:39;33.30;;;17.70;;
3865;SDS011;1948;53.250;10.412;2023-02-08T00:36:07;38.63;;;18.73;;
3865;SDS011;1948;53.250;10.412;2023-02-08T00:38:35;39.93;;;18.40;;
3865;SDS011;1948;53.250;10.412;2023-02-08T00:41:07;31.53;;;17.23;;
3865;SDS011;1948;53.250;10.412;2023-02-08T00:43:34;38.10;;;17.50;;
3865;SDS011;1948;53.250;10.412;2023-02-08T00:46:01;35.70;;;18.40;;
3865;SDS011;1948;53.250;10.412;2023-02-08T00:48:29;35.60;;;16.27;;
3865;SDS011;1948;53.250;10.412;2023-02-08T00:51:04;37.70;;;18.67;;
3865;SDS011;1948;53.250;10.412;2023-02-08T00:53:39;31.73;;;17.03;;
3865;SDS011;1948;53.250;10.412;2023-02-08T00:56:09;36.70;;;17.37;;
3865;SDS011;1948;53.250;10.412;2023-02-08T00:58:41;32.60;;;17.00;;
3865;SDS011;1948;53.250;10.412;2023-02-08T01:01:09;34.97;;;16.87;;
3865;SDS011;1948;53.250;10.412;2023-02-08T01:03:36;37.27;;;17.97;;
3865;SDS011;1948;53.250;10.412;2023-02-08T01:06:06;31.33;;;16.80;;
3865;SDS011;1948;53.250;10.412;2023-02-08T01:08:43;41.67;;;18.60;;
3865;SDS011;1948;53.250;10.412;2023-02-08T01:11:12;31.97;;;17.73;;
3865;SDS011;1948;53.250;10.412;2023-02-08T01:13:42;29.50;;;16.80;;
3865;SDS011;1948;53.250;10.412;2023-02-08T01:18:40;37.23;;;17.70;;
3865;SDS011;1948;53.250;10.412;2023-02-08T01:21:18;39.70;;;17.37;;
3865;SDS011;1948;53.250;10.412;2023-02-08T01:23:47;40.57;;;18.07;;
3865;SDS011;1948;53.250;10.412;2023-02-08T01:26:16;37.80;;;18.80;;
3865;SDS011;1948;53.250;10.412;2023-02-08T01:28:45;39.33;;;18.40;;
3865;SDS011;1948;53.250;10.412;2023-02-08T01:31:18;41.37;;;18.20;;
3865;SDS011;1948;53.250;10.412;2023-02-08T01:33:55;34.40;;;18.20;;
3865;SDS011;1948;53.250;10.412;2023-02-08T01:36:23;35.97;;;17.43;;
3865;SDS011;1948;53.250;10.412;2023-02-08T01:38:54;36.20;;;17.90;;
3865;SDS011;1948;53.250;10.412;2023-02-08T01:41:22;41.50;;;17.33;;
3865;SDS011;1948;53.250;10.412;2023-02-08T01:46:43;39.63;;;18.50;;
3865;SDS011;1948;53.250;10.412;2023-02-08T01:51:53;39.53;;;18.03;;
3865;SDS011;1948;53.250;10.412;2023-02-08T01:54:28;43.53;;;18.33;;
3865;SDS011;1948;53.250;10.412;2023-02-08T01:57:02;37.63;;;17.80;;
3865;SDS011;1948;53.250;10.412;2023-02-08T01:59:39;41.00;;;17.23;;
3865;SDS011;1948;53.250;10.412;2023-02-08T02:02:13;36.23;;;17.80;;
3865;SDS011;1948;53.250;10.412;2023-02-08T02:04:46;36.27;;;17.97;;
3865;SDS011;1948;53.250;10.412;2023-02-08T02:07:17;37.93;;;16.73;;
3865;SDS011;1948;53.250;10.412;2023-02-08T02:09:53;40.43;;;19.27;;
3865;SDS011;1948;53.250;10.412;2023-02-08T02:12:28;36.80;;;19.00;;
3865;SDS011;1948;53.250;10.412;2023-02-08T02:14:57;34.93;;;18.20;;
3865;SDS011;1948;53.250;10.412;2023-02-08T02:17:27;42.77;;;19.33;;
3865;SDS011;1948;53.250;10.412;2023-02-08T02:20:17;44.83;;;19.63;;
3865;SDS011;1948;53.250;10.412;2023-02-08T02:29:21;44.73;;;19.53;;
3865;SDS011;1948;53.250;10.412;2023-02-08T02:32:16;40.40;;;19.50;;
3865;SDS011;1948;53.250;10.412;2023-02-08T02:35:06;44.90;;;19.87;;
3865;SDS011;1948;53.250;10.412;2023-02-08T02:38:07;46.70;;;18.83;;
3865;SDS011;1948;53.250;10.412;2023-02-08T02:47:08;52.43;;;20.73;;
3865;SDS011;1948;53.250;10.412;2023-02-08T02:49:53;41.93;;;20.47;;
3865;SDS011;1948;53.250;10.412;2023-02-08T02:52:39;42.43;;;20.37;;
3865;SDS011;1948;53.250;10.412;2023-02-08T02:55:17;41.43;;;19.93;;
3865;SDS011;1948;53.250;10.412;2023-02-08T02:57:50;42.20;;;20.53;;
3865;SDS011;1948;53.250;10.412;2023-02-08T03:00:21;44.90;;;19.90;;
3865;SDS011;1948;53.250;10.412;2023-02-08T03:02:51;43.40;;;20.83;;
3865;SDS011;1948;53.250;10.412;2023-02-08T03:05:20;40.93;;;19.33;;
3865;SDS011;1948;53.250;10.412;2023-02-08T03:13:37;47.20;;;19.73;;
3865;SDS011;1948;53.250;10.412;2023-02-08T03:16:22;46.40;;;21.27;;
3865;SDS011;1948;53.250;10.412;2023-02-08T03:19:30;41.40;;;19.20;;
3865;SDS011;1948;53.250;10.412;2023-02-08T03:28:23;44.67;;;20.30;;
3865;SDS011;1948;53.250;10.412;2023-02-08T03:33:36;44.23;;;19.80;;
3865;SDS011;1948;53.250;10.412;2023-02-08T03:39:09;51.97;;;21.07;;
3865;SDS011;1948;53.250;10.412;2023-02-08T03:41:43;44.13;;;20.50;;
3865;SDS011;1948;53.250;10.412;2023-02-08T03:44:35;52.73;;;22.77;;
3865;SDS011;1948;53.250;10.412;2023-02-08T03:47:15;43.83;;;19.83;;
3865;SDS011;1948;53.250;10.412;2023-02-08T03:49:57;40.70;;;20.17;;
3865;SDS011;1948;53.250;10.412;2023-02-08T03:52:31;49.67;;;21.60;;
3865;SDS011;1948;53.250;10.412;2023-02-08T03:55:06;45.87;;;21.90;;
3865;SDS011;1948;53.250;10.412;2023-02-08T04:00:51;43.67;;;19.97;;
3865;SDS011;1948;53.250;10.412;2023-02-08T04:03:27;43.50;;;20.17;;
3865;SDS011;1948;53.250;10.412;2023-02-08T04:05:58;43.37;;;20.30;;
3865;SDS011;1948;53.250;10.412;2023-02-08T04:08:27;50.27;;;22.23;;
3865;SDS011;1948;53.250;10.412;2023-02-08T04:10:54;47.10;;;21.80;;
3865;SDS011;1948;53.250;10.412;2023-02-08T04:13:21;48.33;;;21.63;;
3865;SDS011;1948;53.250;10.412;2023-02-08T04:15:48;47.93;;;21.00;;
3865;SDS011;1948;53.250;10.412;2023-02-08T04:18:18;48.40;;;21.47;;
3865;SDS011;1948;53.250;10.412;2023-02-08T04:20:48;47.03;;;22.27;;
3865;SDS011;1948;53.250;10.412;2023-02-08T04:23:21;58.30;;;21.80;;
3865;SDS011;1948;53.250;10.412;2023-02-08T04:25:48;48.63;;;21.60;;
3865;SDS011;1948;53.250;10.412;2023-02-08T04:28:15;45.67;;;20.87;;
3865;SDS011;1948;53.250;10.412;2023-02-08T04:30:42;49.70;;;21.73;;
3865;SDS011;1948;53.250;10.412;2023-02-08T04:33:09;50.53;;;21.73;;
3865;SDS011;1948;53.250;10.412;2023-02-08T04:35:38;45.47;;;20.13;;
3865;SDS011;1948;53.250;10.412;2023-02-08T04:38:07;48.30;;;22.53;;
3865;SDS011;1948;53.250;10.412;2023-02-08T04:40:34;47.57;;;22.17;;
3865;SDS011;1948;53.250;10.412;2023-02-08T04:43:06;51.17;;;22.43;;
3865;SDS011;1948;53.250;10.412;2023-02-08T04:45:36;51.07;;;22.30;;
3865;SDS011;1948;53.250;10.412;2023-02-08T04:48:07;47.97;;;22.23;;
3865;SDS011;1948;53.250;10.412;2023-02-08T04:50:37;41.17;;;21.00;;
3865;SDS011;1948;53.250;10.412;2023-02-08T04:53:05;52.60;;;21.07;;
3865;SDS011;1948;53.250;10.412;2023-02-08T04:55:32;48.07;;;21.40;;
3865;SDS011;1948;53.250;10.412;2023-02-08T04:57:59;64.67;;;22.67;;
3865;SDS011;1948;53.250;10.412;2023-02-08T05:00:27;48.80;;;21.37;;
3865;SDS011;1948;53.250;10.412;2023-02-08T05:02:55;53.53;;;22.60;;
3865;SDS011;1948;53.250;10.412;2023-02-08T05:05:26;54.47;;;22.67;;
3865;SDS011;1948;53.250;10.412;2023-02-08T05:07:53;49.27;;;21.87;;
3865;SDS011;1948;53.250;10.412;2023-02-08T05:10:20;46.80;;;22.10;;
3865;SDS011;1948;53.250;10.412;2023-02-08T05:12:47;48.07;;;21.20;;
3865;SDS011;1948;53.250;10.412;2023-02-08T05:15:14;52.97;;;22.73;;
3865;SDS011;1948;53.250;10.412;2023-02-08T05:17:47;55.73;;;21.77;;
3865;SDS011;1948;53.250;10.412;2023-02-08T05:20:16;58.40;;;23.57;;
3865;SDS011;1948;53.250;10.412;2023-02-08T05:22:44;47.67;;;21.70;;
3865;SDS011;1948;53.250;10.412;2023-02-08T05:25:11;49.23;;;22.80;;
3865;SDS011;1948;53.250;10.412;2023-02-08T05:27:38;48.17;;;21.70;;
3865;SDS011;1948;53.250;10.412;2023-02-08T05:30:05;61.23;;;23.50;;
3865;SDS011;1948;53.250;10.412;2023-02-08T05:32:33;49.60;;;22.47;;
3865;SDS011;1948;53.250;10.412;2023-02-08T05:35:05;54.77;;;24.40;;
3865;SDS011;1948;53.250;10.412;2023-02-08T05:37:32;53.07;;;23.37;;
3865;SDS011;1948;53.250;10.412;2023-02-08T05:40:01;55.67;;;22.40;;
3865;SDS011;1948;53.250;10.412;2023-02-08T05:42:28;51.40;;;23.10;;
3865;SDS011;1948;53.250;10.412;2023-02-08T05:44:55;56.60;;;22.93;;
3865;SDS011;1948;53.250;10.412;2023-02-08T05:47:24;54.50;;;22.33;;
3865;SDS011;1948;53.250;10.412;2023-02-08T05:49:52;55.03;;;21.80;;
3865;SDS011;1948;53.250;10.412;2023-02-08T05:52:18;61.90;;;23.80;;
3865;SDS011;1948;53.250;10.412;2023-02-08T05:54:48;57.53;;;23.63;;
3865;SDS011;1948;53.250;10.412;2023-02-08T05:57:17;45.30;;;20.20;;
3865;SDS011;1948;53.250;10.412;2023-02-08T05:59:44;53.73;;;24.10;;
3865;SDS011;1948;53.250;10.412;2023-02-08T06:02:14;50.67;;;22.37;;
3865;SDS011;1948;53.250;10.412;2023-02-08T06:04:43;53.70;;;22.53;;
3865;SDS011;1948;53.250;10.412;2023-02-08T06:07:12;52.50;;;23.50;;
3865;SDS011;1948;53.250;10.412;2023-02-08T06:09:39;57.03;;;23.93;;
3865;SDS011;1948;53.250;10.412;2023-02-08T06:12:06;56.10;;;23.67;;
3865;SDS011;1948;53.250;10.412;2023-02-08T06:14:33;48.92;;;23.25;;
3865;SDS011;1948;53.250;10.412;2023-02-08T06:17:00;58.77;;;22.90;;
3865;SDS011;1948;53.250;10.412;2023-02-08T06:19:27;54.93;;;24.07;;
3865;SDS011;1948;53.250;10.412;2023-02-08T06:21:54;64.90;;;26.30;;
3865;SDS011;1948;53.250;10.412;2023-02-08T06:24:21;61.57;;;23.57;;
3865;SDS011;1948;53.250;10.412;2023-02-08T06:26:50;58.60;;;25.77;;
3865;SDS011;1948;53.250;10.412;2023-02-08T06:29:17;53.75;;;22.95;;
3865;SDS011;1948;53.250;10.412;2023-02-08T06:31:44;60.93;;;25.40;;
3865;SDS011;1948;53.250;10.412;2023-02-08T06:34:11;59.93;;;25.77;;
3865;SDS011;1948;53.250;10.412;2023-02-08T06:36:41;59.23;;;24.87;;
3865;SDS011;1948;53.250;10.412;2023-02-08T06:39:10;66.53;;;26.33;;
3865;SDS011;1948;53.250;10.412;2023-02-08T06:41:37;59.28;;;25.40;;
3865;SDS011;1948;53.250;10.412;2023-02-08T06:44:09;58.70;;;24.40;;
3865;SDS011;1948;53.250;10.412;2023-02-08T06:46:38;56.83;;;24.60;;
3865;SDS011;1948;53.250;10.412;2023-02-08T06:49:05;54.85;;;22.92;;
3865;SDS011;1948;53.250;10.412;2023-02-08T06:51:32;61.70;;;25.30;;
3865;SDS011;1948;53.250;10.412;2023-02-08T06:54:01;56.20;;;23.90;;
3865;SDS011;1948;53.250;10.412;2023-02-08T06:56:31;64.67;;;25.37;;
3865;SDS011;1948;53.250;10.412;2023-02-08T06:58:58;59.23;;;24.50;;
3865;SDS011;1948;53.250;10.412;2023-02-08T07:01:25;64.03;;;24.37;;
3865;SDS011;1948;53.250;10.412;2023-02-08T07:03:53;62.10;;;25.70;;
3865;SDS011;1948;53.250;10.412;2023-02-08T07:06:20;67.70;;;25.20;;
3865;SDS011;1948;53.250;10.412;2023-02-08T07:08:47;73.07;;;27.42;;
3865;SDS011;1948;53.250;10.412;2023-02-08T07:11:17;66.10;;;25.73;;
3865;SDS011;1948;53.250;10.412;2023-02-08T07:13:49;66.20;;;25.67;;
3865;SDS011;1948;53.250;10.412;2023-02-08T07:16:18;78.33;;;29.03;;
3865;SDS011;1948;53.250;10.412;2023-02-08T07:18:48;70.53;;;28.23;;
3865;SDS011;1948;53.250;10.412;2023-02-08T07:21:15;77.78;;;28.27;;
3865;SDS011;1948;53.250;10.412;2023-02-08T07:23:42;65.97;;;27.15;;
3865;SDS011;1948;53.250;10.412;2023-02-08T07:26:09;77.25;;;28.20;;
3865;SDS011;1948;53.250;10.412;2023-02-08T07:28:37;72.83;;;27.70;;
3865;SDS011;1948;53.250;10.412;2023-02-08T07:31:08;84.97;;;29.43;;
3865;SDS011;1948;53.250;10.412;2023-02-08T07:33:38;65.88;;;26.80;;
3865;SDS011;1948;53.250;10.412;2023-02-08T07:36:07;62.60;;;25.10;;
3865;SDS011;1948;53.250;10.412;2023-02-08T07:38:37;62.80;;;25.67;;
3865;SDS011;1948;53.250;10.412;2023-02-08T07:41:08;66.73;;;27.27;;
3865;SDS011;1948;53.250;10.412;2023-02-08T07:43:43;68.40;;;27.00;;
3865;SDS011;1948;53.250;10.412;2023-02-08T07:48:40;68.07;;;28.57;;
3865;SDS011;1948;53.250;10.412;2023-02-08T07:51:08;65.37;;;27.90;;
3865;SDS011;1948;53.250;10.412;2023-02-08T07:53:38;67.40;;;27.43;;
3865;SDS011;1948;53.250;10.412;2023-02-08T07:56:06;65.30;;;29.00;;
3865;SDS011;1948;53.250;10.412;2023-02-08T07:58:35;67.40;;;29.87;;
3865;SDS011;1948;53.250;10.412;2023-02-08T08:01:03;65.60;;;28.77;;
3865;SDS011;1948;53.250;10.412;2023-02-08T08:03:47;64.20;;;28.17;;
3865;SDS011;1948;53.250;10.412;2023-02-08T08:06:20;68.30;;;30.50;;
3865;SDS011;1948;53.250;10.412;2023-02-08T08:08:50;65.00;;;28.37;;
3865;SDS011;1948;53.250;10.412;2023-02-08T08:11:20;65.13;;;29.63;;
3865;SDS011;1948;53.250;10.412;2023-02-08T08:13:50;64.70;;;29.10;;
3865;SDS011;1948;53.250;10.412;2023-02-08T08:16:18;70.27;;;32.10;;
3865;SDS011;1948;53.250;10.412;2023-02-08T08:18:45;63.50;;;30.23;;
3865;SDS011;1948;53.250;10.412;2023-02-08T08:21:13;64.47;;;30.43;;
3865;SDS011;1948;53.250;10.412;2023-02-08T08:23:41;64.70;;;29.60;;
3865;SDS011;1948;53.250;10.412;2023-02-08T08:26:10;65.20;;;31.00;;
3865;SDS011;1948;53.250;10.412;2023-02-08T08:28:42;67.80;;;31.87;;
3865;SDS011;1948;53.250;10.412;2023-02-08T08:31:16;71.87;;;31.70;;
3865;SDS011;1948;53.250;10.412;2023-02-08T08:33:47;67.30;;;31.07;;
3865;SDS011;1948;53.250;10.412;2023-02-08T08:36:17;64.73;;;32.00;;
3865;SDS011;1948;53.250;10.412;2023-02-08T08:38:44;73.70;;;33.10;;
3865;SDS011;1948;53.250;10.412;2023-02-08T08:41:12;75.17;;;32.97;;
3865;SDS011;1948;53.250;10.412;2023-02-08T08:43:46;67.10;;;30.73;;
3865;SDS011;1948;53.250;10.412;2023-02-08T08:46:13;61.10;;;32.23;;
3865;SDS011;1948;53.250;10.412;2023-02-08T08:48:45;66.63;;;31.53;;
3865;SDS011;1948;53.250;10.412;2023-02-08T08:51:14;58.80;;;29.33;;
3865;SDS011;1948;53.250;10.412;2023-02-08T08:53:41;71.20;;;32.33;;
3865;SDS011;1948;53.250;10.412;2023-02-08T08:56:08;67.90;;;30.80;;
3865;SDS011;1948;53.250;10.412;2023-02-08T08:58:39;63.07;;;29.87;;
3865;SDS011;1948;53.250;10.412;2023-02-08T09:01:05;73.70;;;32.10;;
3865;SDS011;1948;53.250;10.412;2023-02-08T09:03:32;57.30;;;29.00;;
3865;SDS011;1948;53.250;10.412;2023-02-08T09:06:03;59.50;;;30.17;;
3865;SDS011;1948;53.250;10.412;2023-02-08T09:08:32;68.47;;;30.40;;
3865;SDS011;1948;53.250;10.412;2023-02-08T09:11:04;66.10;;;30.47;;
3865;SDS011;1948;53.250;10.412;2023-02-08T09:13:41;56.67;;;28.13;;
3865;SDS011;1948;53.250;10.412;2023-02-08T09:16:10;70.00;;;31.87;;
3865;SDS011;1948;53.250;10.412;2023-02-08T09:18:41;62.70;;;29.80;;
3865;SDS011;1948;53.250;10.412;2023-02-08T09:21:13;63.80;;;33.23;;
3865;SDS011;1948;53.250;10.412;2023-02-08T09:23:50;62.10;;;30.87;;
3865;SDS011;1948;53.250;10.412;2023-02-08T09:26:20;65.27;;;30.40;;
3865;SDS011;1948;53.250;10.412;2023-02-08T09:28:47;63.73;;;32.30;;
3865;SDS011;1948;53.250;10.412;2023-02-08T09:31:17;64.37;;;31.40;;
3865;SDS011;1948;53.250;10.412;2023-02-08T09:33:52;62.50;;;32.97;;
3865;SDS011;1948;53.250;10.412;2023-02-08T09:36:24;64.13;;;32.60;;
3865;SDS011;1948;53.250;10.412;2023-02-08T09:38:57;64.40;;;32.27;;
3865;SDS011;1948;53.250;10.412;2023-02-08T09:49:53;63.00;;;31.93;;
3865;SDS011;1948;53.250;10.412;2023-02-08T09:52:51;56.17;;;31.37;;
3865;SDS011;1948;53.250;10.412;2023-02-08T10:01:05;52.63;;;29.87;;
3865;SDS011;1948;53.250;10.412;2023-02-08T10:07:09;61.63;;;30.97;;
3865;SDS011;1948;53.250;10.412;2023-02-08T10:09:37;54.83;;;29.77;;
3865;SDS011;1948;53.250;10.412;2023-02-08T10:15:23;51.83;;;27.97;;
3865;SDS011;1948;53.250;10.412;2023-02-08T10:18:25;52.67;;;26.20;;
3865;SDS011;1948;53.250;10.412;2023-02-08T10:26:48;45.10;;;24.57;;
3865;SDS011;1948;53.250;10.412;2023-02-08T10:32:35;42.53;;;24.47;;
3865;SDS011;1948;53.250;10.412;2023-02-08T10:35:34;45.90;;;25.47;;
3865;SDS011;1948;53.250;10.412;2023-02-08T10:38:31;44.73;;;22.97;;
3865;SDS011;1948;53.250;10.412;2023-02-08T10:41:14;40.73;;;22.73;;
3865;SDS011;1948;53.250;10.412;2023-02-08T10:43:51;44.77;;;24.70;;
3865;SDS011;1948;53.250;10.412;2023-02-08T10:46:46;43.43;;;22.73;;
3865;SDS011;1948;53.250;10.412;2023-02-08T10:51:59;45.40;;;23.67;;
3865;SDS011;1948;53.250;10.412;2023-02-08T10:54:26;45.73;;;23.63;;
3865;SDS011;1948;53.250;10.412;2023-02-08T10:59:47;44.77;;;23.23;;
3865;SDS011;1948;53.250;10.412;2023-02-08T11:02:22;42.20;;;23.27;;
3865;SDS011;1948;53.250;10.412;2023-02-08T11:07:41;43.10;;;22.17;;
3865;SDS011;1948;53.250;10.412;2023-02-08T11:15:47;46.43;;;21.83;;
3865;SDS011;1948;53.250;10.412;2023-02-08T11:18:24;34.40;;;21.40;;
3865;SDS011;1948;53.250;10.412;2023-02-08T11:21:19;35.93;;;21.90;;
3865;SDS011;1948;53.250;10.412;2023-02-08T11:23:59;38.67;;;22.20;;
3865;SDS011;1948;53.250;10.412;2023-02-08T11:26:31;40.67;;;21.30;;
3865;SDS011;1948;53.250;10.412;2023-02-08T11:34:52;38.07;;;20.60;;
3865;SDS011;1948;53.250;10.412;2023-02-08T11:37:52;42.17;;;22.80;;
3865;SDS011;1948;53.250;10.412;2023-02-08T11:40:30;35.90;;;19.50;;
3865;SDS011;1948;53.250;10.412;2023-02-08T11:43:03;35.80;;;20.50;;
3865;SDS011;1948;53.250;10.412;2023-02-08T11:45:32;35.80;;;20.23;;
3865;SDS011;1948;53.250;10.412;2023-02-08T11:48:03;42.33;;;21.77;;
3865;SDS011;1948;53.250;10.412;2023-02-08T11:50:42;33.10;;;19.50;;
3865;SDS011;1948;53.250;10.412;2023-02-08T11:53:23;38.73;;;21.00;;
3865;SDS011;1948;53.250;10.412;2023-02-08T11:58:41;33.90;;;21.30;;
3865;SDS011;1948;53.250;10.412;2023-02-08T12:01:21;39.53;;;21.80;;
3865;SDS011;1948;53.250;10.412;2023-02-08T12:04:04;34.37;;;21.00;;
3865;SDS011;1948;53.250;10.412;2023-02-08T12:09:37;35.90;;;22.70;;
3865;SDS011;1948;53.250;10.412;2023-02-08T12:23:48;34.50;;;21.10;;
3865;SDS011;1948;53.250;10.412;2023-02-08T12:26:32;35.70;;;22.40;;
3865;SDS011;1948;53.250;10.412;2023-02-08T12:29:31;37.97;;;23.00;;
3865;SDS011;1948;53.250;10.412;2023-02-08T12:32:21;41.90;;;24.47;;
3865;SDS011;1948;53.250;10.412;2023-02-08T12:42:27;37.63;;;22.33;;
3865;SDS011;1948;53.250;10.412;2023-02-08T12:53:48;42.67;;;25.73;;
3865;SDS011;1948;53.250;10.412;2023-02-08T12:56:08;40.50;;;24.00;;
3865;SDS011;1948;53.250;10.412;2023-02-08T12:58:51;42.47;;;23.87;;
3865;SDS011;1948;53.250;10.412;2023-02-08T13:01:40;48.03;;;24.40;;
3865;SDS011;1948;53.250;10.412;2023-02-08T13:04:21;43.30;;;24.83;;
3865;SDS011;1948;53.250;10.412;2023-02-08T13:06:57;43.60;;;25.73;;
3865;SDS011;1948;53.250;10.412;2023-02-08T13:12:19;41.13;;;23.63;;
3865;SDS011;1948;53.250;10.412;2023-02-08T13:14:56;39.67;;;23.00;;
3865;SDS011;1948;53.250;10.412;2023-02-08T13:17:46;44.13;;;24.50;;
3865;SDS011;1948;53.250;10.412;2023-02-08T13:23:20;40.40;;;23.37;;
3865;SDS011;1948;53.250;10.412;2023-02-08T13:25:54;33.73;;;21.60;;
3865;SDS011;1948;53.250;10.412;2023-02-08T13:28:31;37.30;;;21.23;;
3865;SDS011;1948;53.250;10.412;2023-02-08T13:31:02;36.43;;;21.93;;
3865;SDS011;1948;53.250;10.412;2023-02-08T13:33:47;32.60;;;20.53;;
3865;SDS011;1948;53.250;10.412;2023-02-08T13:39:03;36.50;;;21.03;;
3865;SDS011;1948;53.250;10.412;2023-02-08T13:41:51;37.87;;;21.60;;
3865;SDS011;1948;53.250;10.412;2023-02-08T13:44:47;35.60;;;19.53;;
3865;SDS011;1948;53.250;10.412;2023-02-08T13:47:40;35.60;;;20.23;;
3865;SDS011;1948;53.250;10.412;2023-02-08T13:56:08;25.37;;;16.50;;
3865;SDS011;1948;53.250;10.412;2023-02-08T14:13:58;28.17;;;17.57;;
3865;SDS011;1948;53.250;10.412;2023-02-08T14:16:45;32.23;;;18.00;;
3865;SDS011;1948;53.250;10.412;2023-02-08T14:19:33;28.67;;;17.13;;
3865;SDS011;1948;53.250;10.412;2023-02-08T14:24:45;30.50;;;16.73;;
3865;SDS011;1948;53.250;10.412;2023-02-08T14:27:20;32.97;;;18.33;;
3865;SDS011;1948;53.250;10.412;2023-02-08T14:32:42;35.97;;;19.67;;
3865;SDS011;1948;53.250;10.412;2023-02-08T14:37:41;34.70;;;19.83;;
3865;SDS011;1948;53.250;10.412;2023-02-08T14:45:53;40.13;;;20.10;;
3865;SDS011;1948;53.250;10.412;2023-02-08T14:48:34;40.03;;;18.23;;
3865;SDS011;1948;53.250;10.412;2023-02-08T14:53:45;33.37;;;19.27;;
3865;SDS011;1948;53.250;10.412;2023-02-08T14:59:06;30.60;;;18.47;;
3865;SDS011;1948;53.250;10.412;2023-02-08T15:01:41;30.20;;;18.10;;
3865;SDS011;1948;53.250;10.412;2023-02-08T15:04:41;30.17;;;18.47;;
3865;SDS011;1948;53.250;10.412;2023-02-08T15:10:09;32.90;;;18.40;;
3865;SDS011;1948;53.250;10.412;2023-02-08T15:12:39;35.10;;;19.10;;
3865;SDS011;1948;53.250;10.412;2023-02-08T15:15:55;46.83;;;20.53;;
3865;SDS011;1948;53.250;10.412;2023-02-08T15:18:14;33.93;;;17.87;;
3865;SDS011;1948;53.250;10.412;2023-02-08T15:21:14;37.43;;;18.60;;
3865;SDS011;1948;53.250;10.412;2023-02-08T15:26:50;30.60;;;17.90;;
3865;SDS011;1948;53.250;10.412;2023-02-08T15:29:24;38.37;;;18.87;;
3865;SDS011;1948;53.250;10.412;2023-02-08T15:32:13;34.43;;;18.90;;
3865;SDS011;1948;53.250;10.412;2023-02-08T15:34:57;30.60;;;17.07;;
3865;SDS011;1948;53.250;10.412;2023-02-08T15:37:29;27.70;;;15.60;;
3865;SDS011;1948;53.250;10.412;2023-02-08T15:40:00;29.17;;;16.53;;
3865;SDS011;1948;53.250;10.412;2023-02-08T15:42:30;33.13;;;17.90;;
3865;SDS011;1948;53.250;10.412;2023-02-08T15:44:59;32.03;;;17.90;;
3865;SDS011;1948;53.250;10.412;2023-02-08T15:47:31;27.20;;;15.27;;
3865;SDS011;1948;53.250;10.412;2023-02-08T15:50:01;31.43;;;17.33;;
3865;SDS011;1948;53.250;10.412;2023-02-08T15:52:33;37.93;;;18.07;;
3865;SDS011;1948;53.250;10.412;2023-02-08T15:55:06;36.07;;;16.80;;
3865;SDS011;1948;53.250;10.412;2023-02-08T15:57:38;31.27;;;16.40;;
3865;SDS011;1948;53.250;10.412;2023-02-08T16:00:15;33.93;;;17.40;;
3865;SDS011;1948;53.250;10.412;2023-02-08T16:02:55;31.07;;;15.63;;
3865;SDS011;1948;53.250;10.412;2023-02-08T16:05:31;31.27;;;16.40;;
3865;SDS011;1948;53.250;10.412;2023-02-08T16:07:59;40.80;;;16.93;;
3865;SDS011;1948;53.250;10.412;2023-02-08T16:10:38;31.60;;;15.93;;
3865;SDS011;1948;53.250;10.412;2023-02-08T16:13:15;32.33;;;15.83;;
3865;SDS011;1948;53.250;10.412;2023-02-08T16:15:49;32.50;;;15.93;;
3865;SDS011;1948;53.250;10.412;2023-02-08T16:21:25;28.63;;;15.50;;
3865;SDS011;1948;53.250;10.412;2023-02-08T16:29:33;37.03;;;16.70;;
3865;SDS011;1948;53.250;10.412;2023-02-08T16:32:07;41.27;;;18.90;;
3865;SDS011;1948;53.250;10.412;2023-02-08T16:34:59;41.77;;;17.97;;
3865;SDS011;1948;53.250;10.412;2023-02-08T16:37:57;38.40;;;18.17;;
3865;SDS011;1948;53.250;10.412;2023-02-08T16:48:44;38.70;;;19.23;;
3865;SDS011;1948;53.250;10.412;2023-02-08T16:51:22;48.67;;;21.47;;
3865;SDS011;1948;53.250;10.412;2023-02-08T16:53:59;40.00;;;20.17;;
3865;SDS011;1948;53.250;10.412;2023-02-08T16:56:35;42.27;;;22.00;;
3865;SDS011;1948;53.250;10.412;2023-02-08T16:59:07;42.87;;;21.63;;
3865;SDS011;1948;53.250;10.412;2023-02-08T17:01:37;49.00;;;21.40;;
3865;SDS011;1948;53.250;10.412;2023-02-08T17:04:05;49.00;;;22.63;;
3865;SDS011;1948;53.250;10.412;2023-02-08T17:06:35;48.33;;;22.83;;
3865;SDS011;1948;53.250;10.412;2023-02-08T17:09:07;45.30;;;22.03;;
3865;SDS011;1948;53.250;10.412;2023-02-08T17:11:38;46.30;;;22.80;;
3865;SDS011;1948;53.250;10.412;2023-02-08T17:14:08;46.10;;;21.73;;
3865;SDS011;1948;53.250;10.412;2023-02-08T17:16:36;51.67;;;21.97;;
3865;SDS011;1948;53.250;10.412;2023-02-08T17:19:05;44.83;;;23.13;;
3865;SDS011;1948;53.250;10.412;2023-02-08T17:21:32;48.50;;;22.80;;
3865;SDS011;1948;53.250;10.412;2023-02-08T17:23:59;43.80;;;22.27;;
3865;SDS011;1948;53.250;10.412;2023-02-08T17:26:28;57.87;;;23.93;;
3865;SDS011;1948;53.250;10.412;2023-02-08T17:29:02;55.33;;;23.50;;
3865;SDS011;1948;53.250;10.412;2023-02-08T17:31:33;48.93;;;23.10;;
3865;SDS011;1948;53.250;10.412;2023-02-08T17:34:01;48.87;;;22.90;;
3865;SDS011;1948;53.250;10.412;2023-02-08T17:36:31;67.40;;;25.43;;
3865;SDS011;1948;53.250;10.412;2023-02-08T17:39:04;48.37;;;24.37;;
3865;SDS011;1948;53.250;10.412;2023-02-08T17:41:33;57.43;;;27.40;;
3865;SDS011;1948;53.250;10.412;2023-02-08T17:44:00;52.30;;;24.57;;
3865;SDS011;1948;53.250;10.412;2023-02-08T17:46:29;61.17;;;24.03;;
3865;SDS011;1948;53.250;10.412;2023-02-08T17:48:56;48.80;;;24.13;;
3865;SDS011;1948;53.250;10.412;2023-02-08T17:51:26;51.53;;;24.90;;
3865;SDS011;1948;53.250;10.412;2023-02-08T17:53:54;53.63;;;24.10;;
3865;SDS011;1948;53.250;10.412;2023-02-08T17:56:23;49.00;;;23.37;;
3865;SDS011;1948;53.250;10.412;2023-02-08T17:58:52;51.57;;;23.57;;
3865;SDS011;1948;53.250;10.412;2023-02-08T18:01:26;56.47;;;25.30;;
3865;SDS011;1948;53.250;10.412;2023-02-08T18:03:53;49.70;;;24.80;;
3865;SDS011;1948;53.250;10.412;2023-02-08T18:06:23;50.57;;;22.70;;
3865;SDS011;1948;53.250;10.412;2023-02-08T18:08:50;50.43;;;22.43;;
3865;SDS011;1948;53.250;10.412;2023-02-08T18:11:21;51.20;;;24.10;;
3865;SDS011;1948;53.250;10.412;2023-02-08T18:13:50;53.40;;;23.70;;
3865;SDS011;1948;53.250;10.412;2023-02-08T18:16:20;43.37;;;21.27;;
3865;SDS011;1948;53.250;10.412;2023-02-08T18:18:52;47.30;;;24.30;;
3865;SDS011;1948;53.250;10.412;2023-02-08T18:21:26;50.50;;;23.57;;
3865;SDS011;1948;53.250;10.412;2023-02-08T18:24:04;46.23;;;22.80;;
3865;SDS011;1948;53.250;10.412;2023-02-08T18:26:32;50.03;;;23.30;;